createdAt,value
2023-05-24T00:02:23.941Z,99.90
2023-05-24T00:04:52.971Z,99.90
2023-05-24T00:07:20.255Z,99.90
2023-05-24T00:09:47.296Z,99.90
2023-05-24T00:12:14.241Z,99.90
2023-05-24T00:14:41.204Z,99.90
2023-05-24T00:17:08.152Z,99.90
2023-05-24T00:19:38.371Z,99.90
2023-05-24T00:22:05.581Z,99.90
2023-05-24T00:24:32.595Z,99.90
2023-05-24T00:26:59.600Z,99.90
2023-05-24T00:29:26.564Z,99.90
2023-05-24T00:31:53.599Z,99.90
2023-05-24T00:34:20.779Z,99.90
2023-05-24T00:36:47.712Z,99.90
2023-05-24T00:39:14.818Z,99.90
2023-05-24T00:41:41.845Z,99.90
2023-05-24T00:44:11.010Z,99.90
2023-05-24T00:46:38.609Z,99.90
2023-05-24T00:49:05.672Z,99.90
2023-05-24T00:51:34.062Z,99.90
2023-05-24T00:54:01.332Z,99.90
2023-05-24T00:56:28.673Z,99.90
2023-05-24T00:58:56.407Z,99.90
2023-05-24T01:01:30.989Z,99.90
2023-05-24T01:03:59.876Z,99.90
2023-05-24T01:06:28.556Z,99.90
2023-05-24T01:09:09.517Z,99.90
2023-05-24T01:12:00.005Z,99.90
2023-05-24T01:15:05.697Z,99.90
2023-05-24T01:17:32.697Z,99.90
2023-05-24T01:20:11.397Z,99.90
2023-05-24T01:22:50.659Z,99.90
2023-05-24T01:25:20.189Z,99.90
2023-05-24T01:27:48.144Z,99.90
2023-05-24T01:30:15.821Z,99.90
2023-05-24T01:32:43.343Z,99.90
2023-05-24T01:35:10.640Z,99.90
2023-05-24T01:37:37.558Z,99.90
2023-05-24T01:40:06.331Z,99.90
2023-05-24T01:42:52.321Z,99.90
2023-05-24T01:45:28.575Z,99.90
2023-05-24T01:48:03.442Z,99.90
2023-05-24T01:50:45.569Z,99.90
2023-05-24T01:53:15.067Z,99.90
2023-05-24T01:55:43.793Z,99.90
2023-05-24T01:58:13.671Z,99.90
2023-05-24T02:00:41.731Z,99.90
2023-05-24T02:03:09.962Z,99.90
2023-05-24T02:05:38.726Z,99.90
2023-05-24T02:08:05.824Z,99.90
2023-05-24T02:10:33.057Z,99.90
2023-05-24T02:13:00.066Z,99.90
2023-05-24T02:15:30.519Z,99.90
2023-05-24T02:17:58.340Z,99.90
2023-05-24T02:20:25.460Z,99.90
2023-05-24T02:22:52.556Z,99.90
2023-05-24T02:25:19.568Z,99.90
2023-05-24T02:27:47.936Z,99.90
2023-05-24T02:30:14.914Z,99.90
2023-05-24T02:32:42.100Z,99.90
2023-05-24T02:35:09.155Z,99.90
2023-05-24T02:37:36.304Z,99.90
2023-05-24T02:40:03.993Z,99.90
2023-05-24T02:42:31.125Z,99.90
2023-05-24T02:44:58.137Z,99.90
2023-05-24T02:47:27.063Z,99.90
2023-05-24T02:49:55.048Z,99.90
2023-05-24T02:52:23.292Z,99.90
2023-05-24T02:54:50.559Z,99.90
2023-05-24T02:57:18.191Z,99.90
2023-05-24T02:59:45.173Z,99.90
2023-05-24T03:02:13.817Z,99.90
2023-05-24T03:04:40.891Z,99.90
2023-05-24T03:07:08.073Z,99.90
2023-05-24T03:09:35.020Z,99.90
2023-05-24T03:12:01.918Z,99.90
2023-05-24T03:14:28.935Z,99.90
2023-05-24T03:16:55.856Z,99.90
2023-05-24T03:19:22.799Z,99.90
2023-05-24T03:21:49.829Z,99.90
2023-05-24T03:24:16.815Z,99.90
2023-05-24T03:26:43.792Z,99.90
2023-05-24T03:29:10.970Z,99.90
2023-05-24T03:31:38.022Z,99.90
2023-05-24T03:34:05.038Z,99.90
2023-05-24T03:36:32.913Z,99.90
2023-05-24T03:39:00.023Z,99.90
2023-05-24T03:41:28.279Z,99.90
2023-05-24T03:43:55.407Z,99.90
2023-05-24T03:46:22.522Z,99.90
2023-05-24T03:48:49.855Z,99.90
2023-05-24T03:51:16.923Z,99.90
2023-05-24T03:53:43.937Z,99.90
2023-05-24T03:56:11.118Z,99.90
2023-05-24T03:58:38.729Z,99.90
2023-05-24T04:01:05.792Z,99.90
2023-05-24T04:03:34.263Z,99.90
2023-05-24T04:06:01.582Z,99.90
2023-05-24T04:08:28.524Z,99.90
2023-05-24T04:10:55.746Z,99.90
2023-05-24T04:13:22.839Z,99.90
2023-05-24T04:15:49.846Z,99.90
2023-05-24T04:18:16.926Z,99.90
2023-05-24T04:20:44.231Z,99.90
2023-05-24T04:23:11.348Z,99.90
2023-05-24T04:25:38.518Z,99.90
2023-05-24T04:28:06.259Z,99.90
2023-05-24T04:30:33.321Z,99.90
2023-05-24T04:33:00.386Z,99.90
2023-05-24T04:35:27.543Z,99.90
2023-05-24T04:37:54.546Z,99.90
2023-05-24T04:40:21.485Z,99.90
2023-05-24T04:42:48.845Z,99.90
2023-05-24T04:45:16.058Z,99.90
2023-05-24T04:47:43.321Z,99.90
2023-05-24T04:50:11.073Z,99.90
2023-05-24T04:52:38.210Z,99.90
2023-05-24T04:55:05.593Z,99.90
2023-05-24T04:57:32.620Z,99.90
2023-05-24T04:59:59.594Z,99.90
2023-05-24T05:02:27.247Z,99.90
2023-05-24T05:04:54.422Z,99.90
2023-05-24T05:07:21.656Z,99.90
2023-05-24T05:09:48.689Z,99.90
2023-05-24T05:12:16.134Z,99.90
2023-05-24T05:14:43.324Z,99.90
2023-05-24T05:17:10.403Z,99.90
2023-05-24T05:19:37.404Z,99.90
2023-05-24T05:22:04.585Z,99.90
2023-05-24T05:24:31.620Z,99.90
2023-05-24T05:26:58.723Z,99.90
2023-05-24T05:29:25.736Z,99.90
2023-05-24T05:31:52.787Z,99.90
2023-05-24T05:34:21.217Z,99.90
2023-05-24T05:36:48.325Z,99.90
2023-05-24T05:39:15.319Z,99.90
2023-05-24T05:41:46.006Z,99.90
2023-05-24T05:44:14.026Z,99.90
2023-05-24T05:46:43.978Z,99.90
2023-05-24T05:49:11.259Z,99.90
2023-05-24T05:51:38.915Z,99.90
2023-05-24T05:54:06.505Z,99.90
2023-05-24T05:56:33.535Z,99.90
2023-05-24T05:59:00.521Z,99.90
2023-05-24T06:01:27.510Z,99.90
2023-05-24T06:03:54.624Z,99.90
2023-05-24T06:06:21.603Z,99.90
2023-05-24T06:08:48.541Z,99.90
2023-05-24T06:11:15.518Z,99.90
2023-05-24T06:13:42.525Z,99.90
2023-05-24T06:16:10.043Z,99.90
2023-05-24T06:18:37.123Z,99.90
2023-05-24T06:21:04.338Z,99.90
2023-05-24T06:23:32.261Z,99.90
2023-05-24T06:25:59.221Z,99.90
2023-05-24T06:28:26.187Z,99.90
2023-05-24T06:30:53.245Z,99.90
2023-05-24T06:33:20.880Z,99.90
2023-05-24T06:35:48.335Z,99.90
2023-05-24T06:38:15.303Z,99.90
2023-05-24T06:40:42.505Z,99.90
2023-05-24T06:43:09.597Z,99.90
2023-05-24T06:45:37.413Z,99.90
2023-05-24T06:48:04.633Z,99.90
2023-05-24T06:50:32.058Z,99.90
2023-05-24T06:52:59.002Z,99.90
2023-05-24T06:55:26.021Z,99.90
2023-05-24T06:57:52.960Z,99.90
2023-05-24T07:00:20.480Z,99.90
2023-05-24T07:02:47.503Z,99.90
2023-05-24T07:05:14.765Z,99.90
2023-05-24T07:07:43.699Z,99.90
2023-05-24T07:10:11.721Z,99.90
2023-05-24T07:12:38.958Z,99.90
2023-05-24T07:15:07.252Z,99.90
2023-05-24T07:17:34.396Z,99.90
2023-05-24T07:20:02.277Z,99.90
2023-05-24T07:22:30.157Z,99.90
2023-05-24T07:24:57.149Z,99.90
2023-05-24T07:27:24.325Z,99.90
2023-05-24T07:29:51.355Z,99.90
2023-05-24T07:32:19.493Z,99.90
2023-05-24T07:34:46.476Z,99.90
2023-05-24T07:37:13.447Z,99.90
2023-05-24T07:39:40.379Z,99.90
2023-05-24T07:42:07.486Z,99.90
2023-05-24T07:44:34.416Z,99.90
2023-05-24T07:47:02.635Z,99.90
2023-05-24T07:49:29.656Z,99.90
2023-05-24T07:51:59.520Z,99.90
2023-05-24T07:54:26.754Z,99.90
2023-05-24T07:56:53.763Z,99.90
2023-05-24T07:59:21.103Z,99.90
2023-05-24T08:01:48.104Z,99.90
2023-05-24T08:04:15.123Z,99.90
2023-05-24T08:06:42.179Z,99.90
2023-05-24T08:09:09.353Z,99.90
2023-05-24T08:11:36.305Z,99.90
2023-05-24T08:14:04.422Z,99.90
2023-05-24T08:16:32.039Z,99.90
2023-05-24T08:18:59.487Z,99.90
2023-05-24T08:21:27.750Z,99.90
2023-05-24T08:23:54.802Z,99.90
2023-05-24T08:26:22.242Z,99.90
2023-05-24T08:28:49.376Z,99.90
2023-05-24T08:31:16.523Z,99.90
2023-05-24T08:33:44.014Z,99.90
2023-05-24T08:36:11.004Z,99.90
2023-05-24T08:38:37.987Z,99.90
2023-05-24T08:41:08.401Z,99.90
2023-05-24T08:43:35.919Z,99.90
2023-05-24T08:46:04.311Z,99.90
2023-05-24T08:48:31.963Z,99.90
2023-05-24T08:50:59.521Z,99.90
2023-05-24T08:53:27.494Z,99.90
2023-05-24T08:55:56.200Z,99.90
2023-05-24T08:58:26.189Z,99.90
2023-05-24T09:00:53.201Z,99.90
2023-05-24T09:03:20.592Z,99.90
2023-05-24T09:05:47.749Z,99.90
2023-05-24T09:08:18.218Z,99.90
2023-05-24T09:10:55.031Z,99.90
2023-05-24T09:13:27.113Z,99.90
2023-05-24T09:15:54.116Z,99.90
2023-05-24T09:18:21.176Z,99.90
2023-05-24T09:20:48.259Z,99.90
2023-05-24T09:23:16.771Z,99.90
2023-05-24T09:25:45.172Z,99.90
2023-05-24T09:28:17.608Z,99.90
2023-05-24T09:30:59.781Z,99.90
2023-05-24T09:33:32.356Z,99.90
2023-05-24T09:36:01.405Z,99.90
2023-05-24T09:38:29.725Z,99.90
2023-05-24T09:41:08.396Z,99.90
2023-05-24T09:43:48.346Z,99.80
2023-05-24T09:46:22.294Z,97.20
2023-05-24T09:49:04.183Z,97.70
2023-05-24T09:51:31.176Z,96.80
2023-05-24T09:54:00.601Z,97.80
2023-05-24T09:56:27.684Z,97.00
2023-05-24T09:58:55.162Z,97.40
2023-05-24T10:01:25.441Z,96.40
2023-05-24T10:04:00.929Z,96.70
2023-05-24T10:06:28.570Z,96.70
2023-05-24T10:08:57.141Z,97.00
2023-05-24T10:11:24.461Z,96.50
2023-05-24T10:13:51.434Z,95.60
2023-05-24T10:16:18.535Z,96.00
2023-05-24T10:18:45.611Z,94.20
2023-05-24T10:21:13.807Z,95.20
2023-05-24T10:23:44.587Z,95.20
2023-05-24T10:26:14.355Z,93.00
2023-05-24T10:28:46.801Z,94.60
2023-05-24T10:31:28.119Z,93.90
2023-05-24T10:34:06.616Z,93.50
2023-05-24T10:36:35.603Z,91.50
2023-05-24T10:39:03.581Z,91.60
2023-05-24T10:41:44.217Z,91.20
2023-05-24T10:44:16.343Z,90.40
2023-05-24T10:47:12.378Z,88.50
2023-05-24T10:49:48.338Z,88.20
2023-05-24T10:52:15.493Z,88.90
2023-05-24T10:55:05.701Z,88.80
2023-05-24T10:57:33.245Z,89.00
2023-05-24T11:03:02.356Z,87.60
2023-05-24T11:05:36.541Z,87.00
2023-05-24T11:08:06.925Z,83.20
2023-05-24T11:10:36.170Z,84.10
2023-05-24T11:13:04.134Z,84.40
2023-05-24T11:15:31.212Z,81.30
2023-05-24T11:18:09.756Z,82.00
2023-05-24T11:20:37.314Z,80.40
2023-05-24T11:23:09.415Z,82.20
2023-05-24T11:25:39.794Z,83.20
2023-05-24T11:28:13.834Z,80.40
2023-05-24T11:30:48.065Z,84.20
2023-05-24T11:33:22.712Z,80.60
2023-05-24T11:35:54.881Z,80.80
2023-05-24T11:38:24.804Z,82.80
2023-05-24T11:40:52.230Z,84.20
2023-05-24T11:43:21.901Z,83.20
2023-05-24T11:45:50.886Z,84.20
2023-05-24T11:48:19.820Z,82.20
2023-05-24T11:50:50.339Z,84.70
2023-05-24T11:53:19.586Z,86.60
2023-05-24T11:55:46.746Z,82.80
2023-05-24T11:58:36.332Z,84.10
2023-05-24T12:01:04.084Z,82.40
2023-05-24T12:03:32.599Z,83.10
2023-05-24T12:05:59.800Z,80.50
2023-05-24T12:08:26.824Z,81.60
2023-05-24T12:10:54.674Z,81.40
2023-05-24T12:13:23.877Z,78.60
2023-05-24T12:15:56.587Z,78.10
2023-05-24T12:18:26.341Z,80.60
2023-05-24T12:20:53.609Z,82.00
2023-05-24T12:23:23.454Z,78.80
2023-05-24T12:25:51.019Z,77.30
2023-05-24T12:28:24.760Z,76.60
2023-05-24T12:30:51.921Z,74.60
2023-05-24T12:33:21.086Z,74.10
2023-05-24T12:35:50.006Z,73.20
2023-05-24T12:38:25.138Z,74.10
2023-05-24T12:41:10.754Z,72.80
2023-05-24T12:43:39.679Z,74.80
2023-05-24T12:46:06.992Z,75.50
2023-05-24T12:48:34.153Z,74.20
2023-05-24T12:51:02.182Z,72.90
2023-05-24T12:53:29.408Z,73.50
2023-05-24T12:55:56.611Z,73.00
2023-05-24T12:58:23.719Z,75.10
2023-05-24T13:00:52.088Z,76.30
2023-05-24T13:03:19.089Z,73.80
2023-05-24T13:05:47.321Z,73.30
2023-05-24T13:08:14.774Z,72.90
2023-05-24T13:10:42.119Z,73.90
2023-05-24T13:13:09.432Z,73.90
2023-05-24T13:15:38.084Z,74.40
2023-05-24T13:18:05.574Z,74.00
2023-05-24T13:20:32.679Z,74.90
2023-05-24T13:22:59.698Z,73.70
2023-05-24T13:25:27.514Z,74.10
2023-05-24T13:27:54.584Z,76.40
2023-05-24T13:30:27.642Z,74.60
2023-05-24T13:32:56.045Z,74.90
2023-05-24T13:35:23.198Z,73.80
2023-05-24T13:37:51.229Z,75.30
2023-05-24T13:40:18.437Z,73.80
2023-05-24T13:42:45.445Z,73.20
2023-05-24T13:45:12.694Z,74.90
2023-05-24T13:47:41.087Z,74.50
2023-05-24T13:50:08.891Z,74.10
2023-05-24T13:52:36.900Z,75.00
2023-05-24T13:55:07.554Z,74.60
2023-05-24T13:57:50.615Z,74.10
2023-05-24T14:00:19.456Z,75.20
2023-05-24T14:02:47.021Z,75.00
2023-05-24T14:05:26.701Z,75.00
2023-05-24T14:07:56.600Z,75.80
2023-05-24T14:10:23.876Z,75.20
2023-05-24T14:13:07.962Z,74.30
2023-05-24T14:15:38.614Z,75.00
2023-05-24T14:18:08.546Z,76.40
2023-05-24T14:20:38.124Z,74.70
2023-05-24T14:23:06.448Z,76.20
2023-05-24T14:25:33.621Z,76.10
2023-05-24T14:28:01.063Z,74.70
2023-05-24T14:30:28.088Z,75.00
2023-05-24T14:32:55.396Z,75.70
2023-05-24T14:35:22.524Z,75.50
2023-05-24T14:37:49.571Z,75.40
2023-05-24T14:40:19.150Z,74.90
2023-05-24T14:42:47.325Z,74.50
2023-05-24T14:45:14.419Z,74.80
2023-05-24T14:47:41.392Z,74.60
2023-05-24T14:50:08.707Z,76.10
2023-05-24T14:52:35.765Z,75.50
2023-05-24T14:55:04.298Z,75.80
2023-05-24T14:57:31.262Z,74.70
2023-05-24T14:59:58.250Z,75.90
2023-05-24T15:02:25.323Z,75.80
2023-05-24T15:04:52.416Z,75.40
2023-05-24T15:07:20.191Z,75.50
2023-05-24T15:09:47.177Z,75.30
2023-05-24T15:12:14.377Z,76.00
2023-05-24T15:14:41.363Z,75.80
2023-05-24T15:17:09.674Z,73.00
2023-05-24T15:19:36.780Z,74.30
2023-05-24T15:22:04.582Z,74.90
2023-05-24T15:24:31.833Z,75.20
2023-05-24T15:26:58.915Z,75.00
2023-05-24T15:29:26.091Z,75.10
2023-05-24T15:31:53.385Z,74.90
2023-05-24T15:34:23.432Z,73.00
2023-05-24T15:36:50.868Z,71.30
2023-05-24T15:39:20.360Z,72.40
2023-05-24T15:41:47.444Z,72.20
2023-05-24T15:44:14.517Z,72.70
2023-05-24T15:46:41.581Z,73.20
2023-05-24T15:49:08.591Z,72.70
2023-05-24T15:54:06.839Z,72.80
2023-05-24T15:56:33.856Z,72.90
2023-05-24T15:59:00.926Z,73.50
2023-05-24T16:01:27.997Z,73.60
2023-05-24T16:03:55.067Z,72.80
2023-05-24T16:06:22.085Z,73.80
2023-05-24T16:08:49.532Z,73.40
2023-05-24T16:11:16.568Z,74.60
2023-05-24T16:13:43.536Z,74.30
2023-05-24T16:16:10.844Z,75.00
2023-05-24T16:18:38.360Z,75.00
2023-05-24T16:21:05.436Z,73.80
2023-05-24T16:23:32.768Z,74.00
2023-05-24T16:25:59.772Z,74.40
2023-05-24T16:28:26.963Z,75.30
2023-05-24T16:30:56.153Z,75.20
2023-05-24T16:33:24.818Z,74.30
2023-05-24T16:35:55.803Z,75.00
2023-05-24T16:38:24.032Z,74.80
2023-05-24T16:40:51.851Z,76.00
2023-05-24T16:43:19.755Z,75.70
2023-05-24T16:45:47.485Z,75.70
2023-05-24T16:48:14.710Z,75.70
2023-05-24T16:50:42.419Z,75.70
2023-05-24T16:53:09.651Z,76.30
2023-05-24T16:55:36.789Z,76.60
2023-05-24T16:58:03.895Z,76.10
2023-05-24T17:00:31.315Z,76.50
2023-05-24T17:03:00.260Z,76.50
2023-05-24T17:05:27.801Z,77.50
2023-05-24T17:07:55.294Z,77.00
2023-05-24T17:10:22.234Z,76.80
2023-05-24T17:12:49.359Z,76.80
2023-05-24T17:15:16.396Z,77.30
2023-05-24T17:17:43.430Z,77.50
2023-05-24T17:20:10.807Z,77.70
2023-05-24T17:22:37.955Z,77.20
2023-05-24T17:25:05.513Z,77.30
2023-05-24T17:27:32.484Z,77.00
2023-05-24T17:29:59.484Z,77.90
2023-05-24T17:32:26.683Z,77.60
2023-05-24T17:34:53.635Z,78.20
2023-05-24T17:37:20.623Z,78.20
2023-05-24T17:39:52.196Z,79.10
2023-05-24T17:42:19.644Z,79.30
2023-05-24T17:44:47.501Z,80.00
2023-05-24T17:47:14.471Z,79.80
2023-05-24T17:49:41.422Z,80.80
2023-05-24T17:52:08.353Z,81.40
2023-05-24T17:54:35.308Z,81.90
2023-05-24T17:57:03.045Z,82.40
2023-05-24T17:59:30.012Z,83.10
2023-05-24T18:01:56.965Z,83.50
2023-05-24T18:04:23.920Z,84.10
2023-05-24T18:06:50.853Z,84.50
2023-05-24T18:09:18.118Z,84.90
2023-05-24T18:11:45.107Z,85.20
2023-05-24T18:14:12.106Z,85.90
2023-05-24T18:16:39.240Z,86.20
2023-05-24T18:19:06.292Z,86.70
2023-05-24T18:21:33.307Z,86.80
2023-05-24T18:24:00.484Z,87.30
2023-05-24T18:26:27.577Z,87.60
2023-05-24T18:28:54.624Z,88.00
2023-05-24T18:31:22.087Z,88.30
2023-05-24T18:33:49.222Z,88.50
2023-05-24T18:36:16.580Z,88.50
2023-05-24T18:38:47.162Z,88.90
2023-05-24T18:41:15.017Z,89.10
2023-05-24T18:43:43.038Z,89.50
2023-05-24T18:46:14.813Z,89.50
2023-05-24T18:48:42.149Z,89.60
2023-05-24T18:51:09.452Z,89.70
2023-05-24T18:53:36.556Z,89.20
2023-05-24T18:56:03.686Z,89.00
2023-05-24T18:58:31.060Z,87.50
2023-05-24T19:00:58.153Z,87.90
2023-05-24T19:03:25.419Z,87.60
2023-05-24T19:05:52.453Z,86.90
2023-05-24T19:08:19.517Z,86.40
2023-05-24T19:10:46.647Z,86.80
2023-05-24T19:13:13.646Z,87.30
2023-05-24T19:15:40.612Z,87.50
2023-05-24T19:18:07.651Z,88.10
2023-05-24T19:20:34.871Z,88.70
2023-05-24T19:23:01.922Z,89.10
2023-05-24T19:25:28.927Z,89.20
2023-05-24T19:27:59.826Z,89.60
2023-05-24T19:30:27.402Z,89.70
2023-05-24T19:32:54.501Z,89.90
2023-05-24T19:35:21.562Z,90.10
2023-05-24T19:37:48.496Z,90.10
2023-05-24T19:40:15.703Z,90.30
2023-05-24T19:42:42.650Z,90.40
2023-05-24T19:45:10.082Z,90.50
2023-05-24T19:47:37.266Z,90.70
2023-05-24T19:50:04.507Z,90.90
2023-05-24T19:52:31.516Z,90.90
2023-05-24T19:54:58.501Z,91.10
2023-05-24T19:57:25.432Z,91.20
2023-05-24T19:59:52.439Z,91.50
2023-05-24T20:02:19.367Z,91.60
2023-05-24T20:04:46.321Z,91.70
2023-05-24T20:07:14.670Z,92.00
2023-05-24T20:09:41.935Z,92.10
2023-05-24T20:12:09.273Z,92.20
2023-05-24T20:14:36.302Z,92.50
2023-05-24T20:17:04.192Z,92.70
2023-05-24T20:19:31.219Z,93.00
2023-05-24T20:21:58.516Z,93.30
2023-05-24T20:24:25.486Z,93.30
2023-05-24T20:26:52.460Z,93.80
2023-05-24T20:29:19.671Z,94.20
2023-05-24T20:31:47.168Z,94.60
2023-05-24T20:34:14.173Z,94.90
2023-05-24T20:36:43.457Z,95.30
2023-05-24T20:39:10.934Z,95.90
2023-05-24T20:41:38.593Z,96.40
2023-05-24T20:44:05.662Z,96.80
2023-05-24T20:46:32.991Z,97.50
2023-05-24T20:49:00.019Z,98.00
2023-05-24T20:51:27.088Z,98.40
2023-05-24T20:53:54.274Z,98.90
2023-05-24T20:56:23.139Z,99.20
2023-05-24T20:58:52.924Z,99.90
2023-05-24T21:01:21.020Z,99.90
2023-05-24T21:03:48.174Z,99.90
2023-05-24T21:06:15.285Z,99.90
2023-05-24T21:08:43.395Z,99.90
2023-05-24T21:11:10.612Z,99.90
2023-05-24T21:13:38.126Z,99.90
2023-05-24T21:16:05.228Z,99.90
2023-05-24T21:18:33.422Z,99.90
2023-05-24T21:21:00.568Z,99.90
2023-05-24T21:23:27.756Z,99.90
2023-05-24T21:25:54.861Z,99.90
2023-05-24T21:28:21.878Z,99.90
2023-05-24T21:30:48.903Z,99.90
2023-05-24T21:33:16.533Z,99.90
2023-05-24T21:35:43.782Z,99.90
2023-05-24T21:38:11.008Z,99.90
2023-05-24T21:40:38.062Z,99.90
2023-05-24T21:43:05.389Z,99.90
2023-05-24T21:45:32.426Z,99.90
2023-05-24T21:47:59.442Z,99.90
2023-05-24T21:50:26.467Z,99.90
2023-05-24T21:52:53.427Z,99.90
2023-05-24T21:55:20.805Z,99.90
2023-05-24T21:57:47.839Z,99.90
2023-05-24T22:00:15.346Z,99.90
2023-05-24T22:02:42.829Z,99.90
2023-05-24T22:05:10.076Z,99.90
2023-05-24T22:07:37.699Z,99.90
2023-05-24T22:10:05.770Z,99.90
2023-05-24T22:12:33.256Z,99.90
2023-05-24T22:15:01.566Z,99.90
2023-05-24T22:17:32.954Z,99.90
2023-05-24T22:20:04.502Z,99.90
2023-05-24T22:22:31.996Z,99.90
2023-05-24T22:25:02.229Z,99.90
2023-05-24T22:27:30.516Z,99.90
2023-05-24T22:29:57.514Z,99.90
2023-05-24T22:32:24.528Z,99.90
2023-05-24T22:34:51.468Z,99.90
2023-05-24T22:37:18.410Z,99.90
2023-05-24T22:39:45.436Z,99.90
2023-05-24T22:42:12.477Z,99.90
2023-05-24T22:44:39.392Z,99.90
2023-05-24T22:47:08.067Z,99.90
2023-05-24T22:49:35.830Z,99.90
2023-05-24T22:52:02.841Z,99.90
2023-05-24T22:54:29.775Z,99.90
2023-05-24T22:56:56.790Z,99.90
2023-05-24T22:59:23.821Z,99.90
2023-05-24T23:01:51.101Z,99.90
2023-05-24T23:04:21.610Z,99.90
2023-05-24T23:06:52.653Z,99.90
2023-05-24T23:09:29.298Z,99.90
2023-05-24T23:11:58.459Z,99.90
2023-05-24T23:14:25.841Z,99.90
2023-05-24T23:16:52.816Z,99.90
2023-05-24T23:19:19.770Z,99.90
2023-05-24T23:21:46.749Z,99.90
2023-05-24T23:24:16.838Z,99.90
2023-05-24T23:26:44.747Z,99.90
2023-05-24T23:29:11.833Z,99.90
2023-05-24T23:31:39.764Z,99.90
2023-05-24T23:34:07.457Z,99.90
2023-05-24T23:36:34.556Z,99.90
2023-05-24T23:39:01.510Z,99.90
2023-05-24T23:41:28.456Z,99.90
2023-05-24T23:43:55.394Z,99.90
2023-05-24T23:46:22.351Z,99.90
2023-05-24T23:48:49.317Z,99.90
2023-05-24T23:51:16.249Z,99.90
2023-05-24T23:53:43.214Z,99.90
2023-05-24T23:56:11.273Z,99.90
2023-05-24T23:58:38.276Z,99.90
